createdAt,value
2022-08-26T00:02:00.251Z,99512.38
2022-08-26T00:04:27.289Z,99515.06
2022-08-26T00:06:54.866Z,99511.34
2022-08-26T00:09:23.175Z,99510.47
2022-08-26T00:11:51.672Z,99517.56
2022-08-26T00:14:31.168Z,99516.53
2022-08-26T00:16:58.410Z,99522.78
2022-08-26T00:19:25.479Z,99524.19
2022-08-26T00:21:52.061Z,99522.94
2022-08-26T00:24:20.820Z,99526.47
2022-08-26T00:26:48.222Z,99522.13
2022-08-26T00:29:24.631Z,99518.38
2022-08-26T00:31:53.112Z,99520.47
2022-08-26T00:34:19.770Z,99527.13
2022-08-26T00:36:47.223Z,99520.69
2022-08-26T00:39:15.766Z,99520.50
2022-08-26T00:41:43.233Z,99517.41
2022-08-26T00:44:11.001Z,99525.31
2022-08-26T00:46:46.931Z,99514.50
2022-08-26T00:49:16.728Z,99516.97
2022-08-26T00:51:51.169Z,99518.44
2022-08-26T00:54:20.776Z,99513.91
2022-08-26T00:57:00.635Z,99515.53
2022-08-26T00:59:29.167Z,99511.81
2022-08-26T01:02:00.228Z,99514.28
2022-08-26T01:04:30.700Z,99516.38
2022-08-26T01:06:57.576Z,99511.59
2022-08-26T01:09:24.369Z,99515.75
2022-08-26T01:11:54.645Z,99513.06
2022-08-26T01:14:22.533Z,99512.88
2022-08-26T01:16:49.303Z,99511.19
2022-08-26T01:19:21.786Z,99508.72
2022-08-26T01:21:55.497Z,99501.63
2022-08-26T01:24:21.953Z,99503.91
2022-08-26T01:26:52.116Z,99504.31
2022-08-26T01:29:20.175Z,99511.78
2022-08-26T01:32:10.497Z,99514.06
2022-08-26T01:34:38.657Z,99511.13
2022-08-26T01:37:13.634Z,99515.88
2022-08-26T01:39:45.116Z,99509.88
2022-08-26T01:42:14.602Z,99508.84
2022-08-26T01:45:06.311Z,99509.88
2022-08-26T01:47:46.114Z,99521.72
2022-08-26T01:50:28.180Z,99524.81
2022-08-26T01:52:58.067Z,99525.41
2022-08-26T01:55:33.432Z,99520.44
2022-08-26T01:58:04.758Z,99528.47
2022-08-26T02:00:41.618Z,99524.13
2022-08-26T02:03:21.338Z,99527.88
2022-08-26T02:05:55.027Z,99524.72
2022-08-26T02:08:35.873Z,99521.38
2022-08-26T02:11:02.548Z,99517.03
2022-08-26T02:13:30.515Z,99524.69
2022-08-26T02:15:58.183Z,99522.38
2022-08-26T02:18:25.951Z,99522.38
2022-08-26T02:20:53.610Z,99520.09
2022-08-26T02:23:20.175Z,99519.66
2022-08-26T02:26:00.790Z,99529.63
2022-08-26T02:28:32.273Z,99525.59
2022-08-26T02:30:58.916Z,99521.44
2022-08-26T02:33:28.460Z,99522.66
2022-08-26T02:35:54.930Z,99526.22
2022-08-26T02:38:21.417Z,99521.63
2022-08-26T02:40:48.181Z,99523.72
2022-08-26T02:43:14.808Z,99527.66
2022-08-26T02:45:41.884Z,99521.41
2022-08-26T02:48:11.625Z,99518.91
2022-08-26T02:50:39.314Z,99512.47
2022-08-26T02:53:07.279Z,99508.31
2022-08-26T02:55:34.487Z,99505.81
2022-08-26T02:58:01.488Z,99502.47
2022-08-26T03:00:29.501Z,99505.75
2022-08-26T03:02:56.524Z,99502.44
2022-08-26T03:05:24.069Z,99504.06
2022-08-26T03:07:51.560Z,99499.31
2022-08-26T03:10:18.406Z,99500.13
2022-08-26T03:12:47.520Z,99503.69
2022-08-26T03:15:17.900Z,99500.78
2022-08-26T03:17:47.301Z,99497.88
2022-08-26T03:20:17.497Z,99496.84
2022-08-26T03:22:44.570Z,99498.09
2022-08-26T03:25:13.510Z,99501.59
2022-08-26T03:27:41.337Z,99503.50
2022-08-26T03:30:29.101Z,99512.00
2022-08-26T03:32:55.573Z,99510.84
2022-08-26T03:35:22.417Z,99508.75
2022-08-26T03:37:49.136Z,99506.44
2022-08-26T03:40:23.000Z,99506.66
2022-08-26T03:42:50.123Z,99505.19
2022-08-26T03:45:17.865Z,99512.56
2022-08-26T03:47:44.943Z,99513.09
2022-08-26T03:50:14.028Z,99518.53
2022-08-26T03:52:43.832Z,99519.91
2022-08-26T03:55:10.965Z,99514.34
2022-08-26T03:57:43.820Z,99521.72
2022-08-26T04:00:18.389Z,99510.69
2022-08-26T04:02:46.628Z,99517.69
2022-08-26T04:05:17.381Z,99510.00
2022-08-26T04:07:44.508Z,99509.53
2022-08-26T04:10:12.743Z,99510.75
2022-08-26T04:12:39.621Z,99508.25
2022-08-26T04:15:08.056Z,99524.31
2022-08-26T04:17:34.766Z,99525.66
2022-08-26T04:20:02.619Z,99518.59
2022-08-26T04:22:29.381Z,99515.88
2022-08-26T04:24:55.991Z,99510.91
2022-08-26T04:27:32.148Z,99517.94
2022-08-26T04:30:25.315Z,99526.47
2022-08-26T04:32:52.363Z,99522.56
2022-08-26T04:35:25.459Z,99524.03
2022-08-26T04:41:31.647Z,99518.28
2022-08-26T04:43:58.341Z,99516.88
2022-08-26T04:46:25.403Z,99513.81
2022-08-26T04:48:53.350Z,99517.16
2022-08-26T04:51:20.876Z,99515.28
2022-08-26T04:53:47.483Z,99511.19
2022-08-26T04:56:14.273Z,99510.75
2022-08-26T04:59:05.143Z,99522.47
2022-08-26T05:01:34.599Z,99525.34
2022-08-26T05:04:07.986Z,99528.88
2022-08-26T05:06:36.911Z,99535.94
2022-08-26T05:09:03.884Z,99535.75
2022-08-26T05:11:30.336Z,99530.34
2022-08-26T05:14:01.663Z,99533.06
2022-08-26T05:16:30.284Z,99534.34
2022-08-26T05:18:57.489Z,99535.34
2022-08-26T05:21:26.588Z,99536.41
2022-08-26T05:23:56.547Z,99535.09
2022-08-26T05:26:25.775Z,99542.53
2022-08-26T05:28:54.839Z,99547.66
2022-08-26T05:31:29.094Z,99550.78
2022-08-26T05:33:57.448Z,99552.63
2022-08-26T05:36:26.992Z,99555.19
2022-08-26T05:38:54.369Z,99562.06
2022-08-26T05:41:24.836Z,99555.81
2022-08-26T05:43:51.981Z,99556.03
2022-08-26T05:46:18.923Z,99561.41
2022-08-26T05:48:46.086Z,99560.09
2022-08-26T05:51:14.115Z,99555.06
2022-08-26T05:53:43.810Z,99554.69
2022-08-26T05:56:12.602Z,99550.78
2022-08-26T05:58:41.020Z,99556.53
2022-08-26T06:01:14.341Z,99560.09
2022-08-26T06:03:46.790Z,99559.22
2022-08-26T06:06:19.966Z,99561.75
2022-08-26T06:08:47.558Z,99561.50
2022-08-26T06:11:18.682Z,99561.84
2022-08-26T06:13:45.929Z,99576.25
2022-08-26T06:16:15.916Z,99569.09
2022-08-26T06:18:44.677Z,99578.19
2022-08-26T06:21:29.365Z,99583.75
2022-08-26T06:24:17.541Z,99586.06
2022-08-26T06:26:51.084Z,99578.00
2022-08-26T06:29:24.653Z,99589.22
2022-08-26T06:31:52.713Z,99591.19
2022-08-26T06:34:19.428Z,99592.88
2022-08-26T06:36:47.169Z,99583.84
2022-08-26T06:39:15.841Z,99581.16
2022-08-26T06:41:44.961Z,99582.28
2022-08-26T06:44:17.528Z,99581.06
2022-08-26T06:46:45.610Z,99590.06
2022-08-26T06:49:12.846Z,99598.41
2022-08-26T06:51:40.700Z,99590.72
2022-08-26T06:54:07.760Z,99593.81
2022-08-26T06:56:37.228Z,99591.47
2022-08-26T06:59:04.037Z,99595.44
2022-08-26T07:01:37.036Z,99589.53
2022-08-26T07:04:07.902Z,99595.22
2022-08-26T07:06:39.862Z,99589.28
2022-08-26T07:09:09.964Z,99590.94
2022-08-26T07:11:38.776Z,99601.06
2022-08-26T07:14:06.555Z,99600.41
2022-08-26T07:16:33.709Z,99605.44
2022-08-26T07:19:03.580Z,99595.56
2022-08-26T07:21:38.061Z,99586.75
2022-08-26T07:24:04.625Z,99595.56
2022-08-26T07:26:31.588Z,99595.09
2022-08-26T07:28:59.645Z,99598.13
2022-08-26T07:31:28.497Z,99599.50
2022-08-26T07:33:56.830Z,99596.66
2022-08-26T07:36:24.276Z,99601.03
2022-08-26T07:38:51.601Z,99602.97
2022-08-26T07:41:20.030Z,99593.56
2022-08-26T07:43:46.621Z,99596.97
2022-08-26T07:46:20.794Z,99599.53
2022-08-26T07:48:53.874Z,99604.81
2022-08-26T07:51:21.509Z,99604.66
2022-08-26T07:53:52.806Z,99598.69
2022-08-26T07:56:23.295Z,99605.38
2022-08-26T07:58:53.457Z,99602.72
2022-08-26T08:01:21.035Z,99597.13
2022-08-26T08:03:51.225Z,99601.94
2022-08-26T08:06:22.255Z,99600.53
2022-08-26T08:08:50.928Z,99598.91
2022-08-26T08:11:22.441Z,99598.97
2022-08-26T08:13:56.298Z,99598.41
2022-08-26T08:16:25.169Z,99597.38
2022-08-26T08:18:53.335Z,99601.72
2022-08-26T08:21:21.842Z,99604.03
2022-08-26T08:23:51.769Z,99598.44
2022-08-26T08:26:18.466Z,99597.19
2022-08-26T08:28:46.159Z,99595.59
2022-08-26T08:31:45.040Z,99602.88
2022-08-26T08:34:09.106Z,99602.50
2022-08-26T08:36:36.138Z,99605.41
2022-08-26T08:39:03.217Z,99612.22
2022-08-26T08:41:58.577Z,99622.38
2022-08-26T08:47:16.212Z,99620.78
2022-08-26T08:49:43.369Z,99611.38
2022-08-26T08:52:28.963Z,99622.13
2022-08-26T08:54:56.020Z,99629.44
2022-08-26T08:57:32.811Z,99628.38
2022-08-26T09:00:30.218Z,99626.09
2022-08-26T09:03:10.775Z,99628.78
2022-08-26T09:05:48.498Z,99621.72
2022-08-26T09:08:19.731Z,99622.53
2022-08-26T09:10:51.228Z,99634.59
2022-08-26T09:13:26.281Z,99637.28
2022-08-26T09:16:03.618Z,99645.34
2022-08-26T09:18:37.341Z,99640.66
2022-08-26T09:21:16.769Z,99646.34
2022-08-26T09:23:47.055Z,99645.84
2022-08-26T09:26:19.810Z,99638.69
2022-08-26T09:28:49.625Z,99631.31
2022-08-26T09:31:22.386Z,99628.75
2022-08-26T09:34:06.053Z,99620.97
2022-08-26T09:36:53.775Z,99617.72
2022-08-26T09:39:23.508Z,99616.84
2022-08-26T09:42:09.562Z,99621.75
2022-08-26T09:44:56.555Z,99624.47
2022-08-26T09:47:27.859Z,99618.41
2022-08-26T09:50:34.129Z,99616.94
2022-08-26T09:53:28.521Z,99612.81
2022-08-26T09:56:18.898Z,99605.00
2022-08-26T09:58:47.382Z,99592.19
2022-08-26T10:01:25.936Z,99589.75
2022-08-26T10:03:52.599Z,99589.00
2022-08-26T10:06:23.631Z,99573.84
2022-08-26T10:08:54.416Z,99577.84
2022-08-26T10:11:24.803Z,99577.53
2022-08-26T10:13:55.217Z,99570.63
2022-08-26T10:16:25.454Z,99579.63
2022-08-26T10:19:06.528Z,99580.34
2022-08-26T10:21:54.797Z,99575.66
2022-08-26T10:24:39.550Z,99582.78
2022-08-26T10:27:14.651Z,99568.72
2022-08-26T10:29:44.656Z,99563.31
2022-08-26T10:32:26.822Z,99556.44
2022-08-26T10:34:54.387Z,99541.47
2022-08-26T10:37:23.398Z,99535.84
2022-08-26T10:40:04.415Z,99530.81
2022-08-26T10:42:40.840Z,99526.44
2022-08-26T10:45:20.137Z,99526.84
2022-08-26T10:47:57.261Z,99535.94
2022-08-26T10:50:28.257Z,99537.38
2022-08-26T10:53:19.486Z,99532.38
2022-08-26T10:56:15.767Z,99535.25
2022-08-26T10:58:51.331Z,99536.72
2022-08-26T11:01:40.871Z,99533.00
2022-08-26T11:04:35.007Z,99528.72
2022-08-26T11:07:37.217Z,99516.09
2022-08-26T11:10:45.158Z,99519.50
2022-08-26T11:13:12.049Z,99515.59
2022-08-26T11:15:38.433Z,99517.16
2022-08-26T11:18:45.129Z,99514.94
2022-08-26T11:22:02.164Z,99518.09
2022-08-26T11:24:44.019Z,99514.69
2022-08-26T11:27:36.681Z,99518.88
2022-08-26T11:30:33.827Z,99521.47
2022-08-26T11:33:00.831Z,99524.63
2022-08-26T11:35:48.497Z,99518.00
2022-08-26T11:38:18.603Z,99515.53
2022-08-26T11:40:45.247Z,99510.56
2022-08-26T11:43:21.949Z,99509.34
2022-08-26T11:46:01.867Z,99512.94
2022-08-26T11:48:34.754Z,99514.81
2022-08-26T11:51:11.702Z,99509.47
2022-08-26T11:53:42.964Z,99514.03
2022-08-26T11:56:17.948Z,99506.34
2022-08-26T11:58:48.116Z,99511.34
2022-08-26T12:01:26.617Z,99509.09
2022-08-26T12:03:55.145Z,99505.75
2022-08-26T12:06:36.430Z,99503.88
2022-08-26T12:09:12.110Z,99503.22
2022-08-26T12:11:40.043Z,99503.84
2022-08-26T12:14:09.619Z,99504.44
2022-08-26T12:16:39.027Z,99500.66
2022-08-26T12:19:26.299Z,99495.41
2022-08-26T12:22:01.453Z,99492.88
2022-08-26T12:24:28.109Z,99489.47
2022-08-26T12:27:17.909Z,99481.69
2022-08-26T12:29:44.597Z,99472.63
2022-08-26T12:32:17.689Z,99462.56
2022-08-26T12:34:45.668Z,99458.97
2022-08-26T12:37:13.960Z,99458.06
2022-08-26T12:39:41.960Z,99455.91
2022-08-26T12:42:17.119Z,99457.97
2022-08-26T12:44:53.871Z,99447.72
2022-08-26T12:47:43.203Z,99445.13
2022-08-26T12:50:31.291Z,99439.56
2022-08-26T12:53:03.955Z,99440.06
2022-08-26T12:55:51.953Z,99433.88
2022-08-26T12:58:18.303Z,99439.19
2022-08-26T13:00:48.365Z,99433.66
2022-08-26T13:03:47.992Z,99420.47
2022-08-26T13:06:23.291Z,99422.63
2022-08-26T13:08:54.804Z,99418.69
2022-08-26T13:11:28.925Z,99411.44
2022-08-26T13:14:06.881Z,99413.50
2022-08-26T13:16:34.264Z,99406.34
2022-08-26T13:19:03.958Z,99407.78
2022-08-26T13:21:37.502Z,99394.03
2022-08-26T13:24:12.043Z,99393.09
2022-08-26T13:26:39.843Z,99382.06
2022-08-26T13:29:10.133Z,99383.00
2022-08-26T13:31:39.362Z,99382.53
2022-08-26T13:34:06.049Z,99382.16
2022-08-26T13:36:32.714Z,99382.47
2022-08-26T13:38:59.225Z,99375.53
2022-08-26T13:41:29.121Z,99367.59
2022-08-26T13:43:56.363Z,99363.97
2022-08-26T13:46:22.875Z,99355.56
2022-08-26T13:48:49.388Z,99352.81
2022-08-26T13:51:18.492Z,99353.91
2022-08-26T13:53:44.955Z,99355.97
2022-08-26T13:56:11.416Z,99357.72
2022-08-26T13:58:37.878Z,99360.22
2022-08-26T14:01:10.767Z,99361.38
2022-08-26T14:03:37.502Z,99358.56
2022-08-26T14:06:04.110Z,99360.81
2022-08-26T14:08:32.144Z,99359.97
2022-08-26T14:10:59.277Z,99365.56
2022-08-26T14:13:25.890Z,99365.53
2022-08-26T14:15:52.806Z,99355.59
2022-08-26T14:18:22.669Z,99366.28
2022-08-26T14:20:52.827Z,99357.06
2022-08-26T14:23:19.305Z,99360.03
2022-08-26T14:25:45.797Z,99354.69
2022-08-26T14:28:12.352Z,99361.72
2022-08-26T14:30:42.794Z,99363.78
2022-08-26T14:33:12.738Z,99365.56
2022-08-26T14:35:39.504Z,99358.91
2022-08-26T14:38:06.153Z,99373.75
2022-08-26T14:40:34.021Z,99363.38
2022-08-26T14:43:05.360Z,99357.63
2022-08-26T14:45:32.834Z,99355.47
2022-08-26T14:47:59.751Z,99358.72
2022-08-26T14:50:26.318Z,99357.56
2022-08-26T14:53:11.455Z,99341.00
2022-08-26T14:55:40.471Z,99345.78
2022-08-26T14:58:08.344Z,99342.91
2022-08-26T15:00:36.141Z,99347.13
2022-08-26T15:03:33.776Z,99343.50
2022-08-26T15:06:00.698Z,99339.53
2022-08-26T15:11:32.916Z,99373.66
2022-08-26T15:14:19.369Z,99376.06
2022-08-26T15:16:49.650Z,99380.59
2022-08-26T15:19:25.839Z,99390.00
2022-08-26T15:21:52.556Z,99400.22
2022-08-26T15:24:58.522Z,99398.91
2022-08-26T15:27:25.314Z,99394.63
2022-08-26T15:29:51.847Z,99403.28
2022-08-26T15:32:18.605Z,99391.22
2022-08-26T15:34:52.453Z,99411.34
2022-08-26T15:37:27.980Z,99408.00
2022-08-26T15:39:59.195Z,99405.66
2022-08-26T15:42:32.775Z,99398.75
2022-08-26T15:45:05.769Z,99397.00
2022-08-26T15:48:05.608Z,99398.72
2022-08-26T15:50:33.571Z,99399.78
2022-08-26T15:53:01.315Z,99396.09
2022-08-26T15:55:27.754Z,99394.00
2022-08-26T15:57:55.545Z,99400.06
2022-08-26T16:00:39.817Z,99397.47
2022-08-26T16:03:31.763Z,99405.84
2022-08-26T16:05:58.415Z,99402.69
2022-08-26T16:08:25.337Z,99398.91
2022-08-26T16:10:55.408Z,99401.63
2022-08-26T16:13:51.546Z,99408.72
2022-08-26T16:16:19.830Z,99419.84
2022-08-26T16:18:50.452Z,99424.34
2022-08-26T16:21:36.686Z,99435.00
2022-08-26T16:24:39.539Z,99431.69
2022-08-26T16:27:06.769Z,99441.25
2022-08-26T16:29:40.432Z,99436.28
2022-08-26T16:32:08.791Z,99438.38
2022-08-26T16:34:37.681Z,99453.34
2022-08-26T16:37:20.893Z,99461.69
2022-08-26T16:40:05.963Z,99456.19
2022-08-26T16:42:33.137Z,99467.84
2022-08-26T16:44:59.680Z,99471.56
2022-08-26T16:47:26.303Z,99473.34
2022-08-26T16:49:53.058Z,99475.63
2022-08-26T16:52:19.561Z,99483.03
2022-08-26T16:54:46.015Z,99479.09
2022-08-26T16:57:12.943Z,99485.78
2022-08-26T16:59:40.189Z,99485.06
2022-08-26T17:02:07.616Z,99487.22
2022-08-26T17:04:34.147Z,99483.50
2022-08-26T17:07:00.647Z,99483.72
2022-08-26T17:09:27.135Z,99481.44
2022-08-26T17:11:54.251Z,99480.00
2022-08-26T17:14:21.244Z,99481.94
2022-08-26T17:16:51.045Z,99483.44
2022-08-26T17:19:19.129Z,99481.44
2022-08-26T17:21:46.223Z,99481.59
2022-08-26T17:24:12.744Z,99477.72
2022-08-26T17:26:39.238Z,99488.41
2022-08-26T17:29:07.371Z,99486.75
2022-08-26T17:31:34.591Z,99483.25
2022-08-26T17:34:01.111Z,99476.59
2022-08-26T17:36:28.476Z,99485.84
2022-08-26T17:38:55.904Z,99480.22
2022-08-26T17:41:22.367Z,99484.41
2022-08-26T17:43:48.830Z,99485.72
2022-08-26T17:46:15.471Z,99491.38
2022-08-26T17:48:42.098Z,99494.97
2022-08-26T17:51:10.988Z,99503.31
2022-08-26T17:53:37.364Z,99511.06
2022-08-26T17:56:12.568Z,99508.34
2022-08-26T17:58:39.875Z,99505.41
2022-08-26T18:01:06.555Z,99513.31
2022-08-26T18:03:33.555Z,99512.72
2022-08-26T18:06:00.016Z,99515.69
2022-08-26T18:08:26.665Z,99509.84
2022-08-26T18:10:53.169Z,99513.19
2022-08-26T18:13:19.623Z,99517.16
2022-08-26T18:15:46.949Z,99515.47
2022-08-26T18:18:14.464Z,99514.63
2022-08-26T18:20:42.865Z,99519.44
2022-08-26T18:23:09.652Z,99511.09
2022-08-26T18:25:40.394Z,99512.75
2022-08-26T18:28:07.429Z,99517.94
2022-08-26T18:30:34.278Z,99514.19
2022-08-26T18:33:01.002Z,99516.28
2022-08-26T18:35:29.763Z,99518.16
2022-08-26T18:37:57.452Z,99524.63
2022-08-26T18:40:27.982Z,99517.78
2022-08-26T18:42:54.503Z,99522.16
2022-08-26T18:51:34.235Z,99529.25
2022-08-26T18:54:06.828Z,99537.31
2022-08-26T18:56:35.385Z,99541.91
2022-08-26T18:59:08.675Z,99540.19
2022-08-26T19:01:36.341Z,99546.63
2022-08-26T19:04:04.790Z,99546.72
2022-08-26T19:06:33.022Z,99546.25
2022-08-26T19:09:03.122Z,99554.09
2022-08-26T19:11:32.333Z,99546.78
2022-08-26T19:14:07.372Z,99557.28
2022-08-26T19:16:34.015Z,99559.06
2022-08-26T19:19:01.776Z,99557.72
2022-08-26T19:21:29.511Z,99560.56
2022-08-26T19:23:57.930Z,99565.28
2022-08-26T19:42:43.618Z,99596.25
2022-08-26T19:45:24.548Z,99599.16
2022-08-26T19:47:52.881Z,99596.84
2022-08-26T19:50:20.458Z,99591.81
2022-08-26T19:53:15.677Z,99590.31
2022-08-26T19:55:57.653Z,99590.72
2022-08-26T19:58:24.119Z,99595.66
2022-08-26T20:01:43.836Z,99597.06
2022-08-26T20:04:47.269Z,99591.00
2022-08-26T20:07:20.521Z,99592.44
2022-08-26T20:09:48.222Z,99593.66
2022-08-26T20:12:41.601Z,99601.28
2022-08-26T20:15:15.867Z,99607.50
2022-08-26T20:17:43.536Z,99608.16
2022-08-26T20:20:33.243Z,99608.97
2022-08-26T20:23:36.934Z,99607.50
2022-08-26T20:26:03.969Z,99606.47
2022-08-26T20:28:34.925Z,99611.84
2022-08-26T20:31:02.179Z,99608.16
2022-08-26T20:34:19.773Z,99617.25
2022-08-26T20:40:08.682Z,99624.97
2022-08-26T20:42:35.614Z,99618.72
2022-08-26T20:45:03.155Z,99611.66
2022-08-26T20:52:40.966Z,99614.75
2022-08-26T20:55:07.923Z,99617.25
2022-08-26T20:57:41.910Z,99615.97
2022-08-26T21:00:11.814Z,99611.78
2022-08-26T21:02:46.364Z,99607.41
2022-08-26T21:05:12.971Z,99613.66
2022-08-26T21:07:39.550Z,99610.97
2022-08-26T21:14:26.131Z,99610.84
2022-08-26T21:16:53.240Z,99599.44
2022-08-26T21:19:19.860Z,99607.91
2022-08-26T21:21:52.488Z,99612.66
2022-08-26T21:24:19.811Z,99607.44
2022-08-26T21:26:46.651Z,99606.81
2022-08-26T21:30:16.623Z,99614.41
2022-08-26T21:32:46.396Z,99615.81
2022-08-26T21:35:12.953Z,99618.88
2022-08-26T21:37:45.255Z,99622.63
2022-08-26T21:40:12.245Z,99616.56
2022-08-26T21:43:16.593Z,99621.97
2022-08-26T21:46:14.351Z,99624.66
2022-08-26T21:48:56.969Z,99628.75
2022-08-26T21:51:30.224Z,99629.78
2022-08-26T21:53:57.730Z,99628.28
2022-08-26T21:56:56.816Z,99625.78
2022-08-26T21:59:25.634Z,99635.91
2022-08-26T22:01:52.163Z,99630.69
2022-08-26T22:04:18.640Z,99637.28
2022-08-26T22:06:47.646Z,99645.56
2022-08-26T22:10:19.113Z,99642.22
2022-08-26T22:12:46.079Z,99643.56
2022-08-26T22:15:13.164Z,99643.28
2022-08-26T22:17:48.648Z,99634.28
2022-08-26T22:20:16.472Z,99640.84
2022-08-26T22:22:43.346Z,99643.75
2022-08-26T22:25:10.006Z,99644.56
2022-08-26T22:27:40.451Z,99655.00
2022-08-26T22:30:11.812Z,99655.28
2022-08-26T22:37:08.935Z,99648.28
2022-08-26T22:39:39.815Z,99645.25
2022-08-26T22:42:57.935Z,99656.34
2022-08-26T22:45:41.258Z,99653.06
2022-08-26T22:48:08.627Z,99654.56
2022-08-26T22:50:44.104Z,99656.03
2022-08-26T22:53:35.236Z,99655.50
2022-08-26T22:56:26.405Z,99655.31
2022-08-26T22:58:52.947Z,99658.66
2022-08-26T23:01:19.482Z,99656.78
2022-08-26T23:04:05.264Z,99650.59
2022-08-26T23:06:57.208Z,99654.09
2022-08-26T23:09:24.194Z,99654.09
2022-08-26T23:11:55.984Z,99664.06
2022-08-26T23:14:39.346Z,99651.78
2022-08-26T23:17:14.253Z,99656.31
2022-08-26T23:19:41.936Z,99655.50
2022-08-26T23:22:33.772Z,99661.25
2022-08-26T23:25:02.342Z,99660.41
2022-08-26T23:27:36.223Z,99658.09
2022-08-26T23:30:05.248Z,99655.97
2022-08-26T23:32:31.767Z,99649.91
2022-08-26T23:35:21.596Z,99642.56
2022-08-26T23:37:51.174Z,99644.78
2022-08-26T23:40:22.991Z,99647.47
2022-08-26T23:42:51.821Z,99641.44
2022-08-26T23:45:19.895Z,99644.13
2022-08-26T23:47:58.437Z,99643.09
2022-08-26T23:56:00.731Z,99637.72
2022-08-26T23:58:45.010Z,99643.94
